sensor_id;sensor_type;location;lat;lon;timestamp;temperature;humidity
40636;DHT22;26642;55.766;37.828;2023-08-07T00:02:08;25.70;77.90
40636;DHT22;26642;55.766;37.828;2023-08-07T00:04:34;25.70;77.70
40636;DHT22;26642;55.766;37.828;2023-08-07T00:07:00;25.70;77.70
40636;DHT22;26642;55.766;37.828;2023-08-07T00:09:26;25.60;77.80
40636;DHT22;26642;55.766;37.828;2023-08-07T00:11:51;25.60;78.00
40636;DHT22;26642;55.766;37.828;2023-08-07T00:14:17;25.40;78.30
40636;DHT22;26642;55.766;37.828;2023-08-07T00:16:43;25.50;78.20
40636;DHT22;26642;55.766;37.828;2023-08-07T00:19:10;25.50;77.80
40636;DHT22;26642;55.766;37.828;2023-08-07T00:21:36;25.50;78.10
40636;DHT22;26642;55.766;37.828;2023-08-07T00:24:03;25.40;78.10
40636;DHT22;26642;55.766;37.828;2023-08-07T00:26:29;25.40;78.10
40636;DHT22;26642;55.766;37.828;2023-08-07T00:28:58;25.40;78.20
40636;DHT22;26642;55.766;37.828;2023-08-07T00:31:24;25.40;78.30
40636;DHT22;26642;55.766;37.828;2023-08-07T00:33:50;25.40;78.10
40636;DHT22;26642;55.766;37.828;2023-08-07T00:36:19;25.40;78.10
40636;DHT22;26642;55.766;37.828;2023-08-07T00:38:45;25.40;78.10
40636;DHT22;26642;55.766;37.828;2023-08-07T00:41:11;25.40;78.40
40636;DHT22;26642;55.766;37.828;2023-08-07T00:43:37;25.20;78.60
40636;DHT22;26642;55.766;37.828;2023-08-07T00:46:04;25.30;78.70
40636;DHT22;26642;55.766;37.828;2023-08-07T00:48:31;25.40;78.40
40636;DHT22;26642;55.766;37.828;2023-08-07T00:50:58;25.30;78.60
40636;DHT22;26642;55.766;37.828;2023-08-07T00:53:24;25.20;78.90
40636;DHT22;26642;55.766;37.828;2023-08-07T00:55:50;25.20;79.00
40636;DHT22;26642;55.766;37.828;2023-08-07T00:58:17;25.20;78.80
40636;DHT22;26642;55.766;37.828;2023-08-07T01:00:43;25.20;79.10
40636;DHT22;26642;55.766;37.828;2023-08-07T01:03:11;25.20;78.90
40636;DHT22;26642;55.766;37.828;2023-08-07T01:05:37;25.20;79.10
40636;DHT22;26642;55.766;37.828;2023-08-07T01:08:03;25.00;79.50
40636;DHT22;26642;55.766;37.828;2023-08-07T01:11:20;25.00;79.50
40636;DHT22;26642;55.766;37.828;2023-08-07T01:13:40;25.10;79.50
40636;DHT22;26642;55.766;37.828;2023-08-07T01:16:26;25.00;79.40
40636;DHT22;26642;55.766;37.828;2023-08-07T01:18:54;25.00;79.70
40636;DHT22;26642;55.766;37.828;2023-08-07T01:21:21;25.00;79.80
40636;DHT22;26642;55.766;37.828;2023-08-07T01:23:48;24.80;80.10
40636;DHT22;26642;55.766;37.828;2023-08-07T01:26:19;24.80;80.50
40636;DHT22;26642;55.766;37.828;2023-08-07T01:29:16;24.80;80.50
40636;DHT22;26642;55.766;37.828;2023-08-07T01:31:44;24.80;80.40
40636;DHT22;26642;55.766;37.828;2023-08-07T01:34:13;24.80;80.50
40636;DHT22;26642;55.766;37.828;2023-08-07T01:36:40;24.70;80.80
40636;DHT22;26642;55.766;37.828;2023-08-07T01:39:06;24.70;80.80
40636;DHT22;26642;55.766;37.828;2023-08-07T01:41:36;24.60;81.10
40636;DHT22;26642;55.766;37.828;2023-08-07T01:44:02;24.60;81.00
40636;DHT22;26642;55.766;37.828;2023-08-07T01:46:29;24.60;81.60
40636;DHT22;26642;55.766;37.828;2023-08-07T01:48:55;24.60;81.10
40636;DHT22;26642;55.766;37.828;2023-08-07T01:51:21;24.60;81.20
40636;DHT22;26642;55.766;37.828;2023-08-07T01:53:49;24.60;81.30
40636;DHT22;26642;55.766;37.828;2023-08-07T01:56:15;24.40;81.60
40636;DHT22;26642;55.766;37.828;2023-08-07T01:58:41;24.40;82.20
40636;DHT22;26642;55.766;37.828;2023-08-07T02:01:07;24.40;82.00
40636;DHT22;26642;55.766;37.828;2023-08-07T02:03:33;24.30;82.00
40636;DHT22;26642;55.766;37.828;2023-08-07T02:05:59;24.40;81.80
40636;DHT22;26642;55.766;37.828;2023-08-07T02:08:25;24.40;81.60
40636;DHT22;26642;55.766;37.828;2023-08-07T02:10:51;24.40;81.70
40636;DHT22;26642;55.766;37.828;2023-08-07T02:13:17;24.40;81.70
40636;DHT22;26642;55.766;37.828;2023-08-07T02:15:42;24.40;81.70
40636;DHT22;26642;55.766;37.828;2023-08-07T02:18:08;24.40;81.60
40636;DHT22;26642;55.766;37.828;2023-08-07T02:20:34;24.40;81.40
40636;DHT22;26642;55.766;37.828;2023-08-07T02:23:00;24.40;81.50
40636;DHT22;26642;55.766;37.828;2023-08-07T02:25:27;24.50;81.20
40636;DHT22;26642;55.766;37.828;2023-08-07T02:27:55;24.50;81.20
40636;DHT22;26642;55.766;37.828;2023-08-07T02:30:21;24.50;81.20
40636;DHT22;26642;55.766;37.828;2023-08-07T02:32:49;24.50;81.30
40636;DHT22;26642;55.766;37.828;2023-08-07T02:35:15;24.40;81.30
40636;DHT22;26642;55.766;37.828;2023-08-07T02:37:41;24.40;81.80
40636;DHT22;26642;55.766;37.828;2023-08-07T02:40:07;24.30;81.80
40636;DHT22;26642;55.766;37.828;2023-08-07T02:42:34;24.40;81.70
40636;DHT22;26642;55.766;37.828;2023-08-07T02:45:00;24.50;81.60
40636;DHT22;26642;55.766;37.828;2023-08-07T02:47:26;24.60;81.50
40636;DHT22;26642;55.766;37.828;2023-08-07T02:49:52;24.60;81.10
40636;DHT22;26642;55.766;37.828;2023-08-07T02:52:17;24.70;80.80
40636;DHT22;26642;55.766;37.828;2023-08-07T02:54:43;24.60;80.80
40636;DHT22;26642;55.766;37.828;2023-08-07T02:57:09;24.60;80.80
40636;DHT22;26642;55.766;37.828;2023-08-07T02:59:35;24.40;81.10
40636;DHT22;26642;55.766;37.828;2023-08-07T03:02:01;24.40;81.30
40636;DHT22;26642;55.766;37.828;2023-08-07T03:04:27;24.40;81.50
40636;DHT22;26642;55.766;37.828;2023-08-07T03:06:53;24.30;81.40
40636;DHT22;26642;55.766;37.828;2023-08-07T03:09:20;24.30;81.80
40636;DHT22;26642;55.766;37.828;2023-08-07T03:11:46;24.30;81.70
40636;DHT22;26642;55.766;37.828;2023-08-07T03:14:12;24.20;82.00
40636;DHT22;26642;55.766;37.828;2023-08-07T03:16:38;24.30;81.70
40636;DHT22;26642;55.766;37.828;2023-08-07T03:19:04;24.30;81.70
40636;DHT22;26642;55.766;37.828;2023-08-07T03:21:30;24.30;81.70
40636;DHT22;26642;55.766;37.828;2023-08-07T03:23:56;24.20;81.90
40636;DHT22;26642;55.766;37.828;2023-08-07T03:26:22;24.20;82.30
40636;DHT22;26642;55.766;37.828;2023-08-07T03:28:48;24.20;82.40
40636;DHT22;26642;55.766;37.828;2023-08-07T03:31:15;24.20;82.30
40636;DHT22;26642;55.766;37.828;2023-08-07T03:33:41;24.20;82.20
40636;DHT22;26642;55.766;37.828;2023-08-07T03:36:08;24.20;81.90
40636;DHT22;26642;55.766;37.828;2023-08-07T03:38:35;24.30;81.80
40636;DHT22;26642;55.766;37.828;2023-08-07T03:41:01;24.20;82.30
40636;DHT22;26642;55.766;37.828;2023-08-07T03:43:28;24.20;82.30
40636;DHT22;26642;55.766;37.828;2023-08-07T03:45:55;24.20;81.90
40636;DHT22;26642;55.766;37.828;2023-08-07T03:48:24;24.20;82.00
40636;DHT22;26642;55.766;37.828;2023-08-07T03:50:51;24.30;82.00
40636;DHT22;26642;55.766;37.828;2023-08-07T03:53:18;24.30;81.90
40636;DHT22;26642;55.766;37.828;2023-08-07T03:55:50;24.20;81.90
40636;DHT22;26642;55.766;37.828;2023-08-07T03:58:19;24.20;82.30
40636;DHT22;26642;55.766;37.828;2023-08-07T04:00:46;24.20;82.50
40636;DHT22;26642;55.766;37.828;2023-08-07T04:03:12;24.30;82.00
40636;DHT22;26642;55.766;37.828;2023-08-07T04:05:38;24.30;81.70
40636;DHT22;26642;55.766;37.828;2023-08-07T04:08:06;24.40;81.50
40636;DHT22;26642;55.766;37.828;2023-08-07T04:10:32;24.50;81.40
40636;DHT22;26642;55.766;37.828;2023-08-07T04:12:58;24.70;80.60
40636;DHT22;26642;55.766;37.828;2023-08-07T04:15:24;24.80;80.20
40636;DHT22;26642;55.766;37.828;2023-08-07T04:17:50;25.00;79.70
40636;DHT22;26642;55.766;37.828;2023-08-07T04:20:16;25.20;79.30
40636;DHT22;26642;55.766;37.828;2023-08-07T04:22:42;25.40;78.30
40636;DHT22;26642;55.766;37.828;2023-08-07T04:25:08;25.40;77.50
40636;DHT22;26642;55.766;37.828;2023-08-07T04:27:34;25.60;77.30
40636;DHT22;26642;55.766;37.828;2023-08-07T04:30:00;25.80;76.40
40636;DHT22;26642;55.766;37.828;2023-08-07T04:32:26;25.90;76.00
40636;DHT22;26642;55.766;37.828;2023-08-07T04:34:52;26.00;75.60
40636;DHT22;26642;55.766;37.828;2023-08-07T04:37:18;26.10;75.00
40636;DHT22;26642;55.766;37.828;2023-08-07T04:39:44;26.30;74.50
40636;DHT22;26642;55.766;37.828;2023-08-07T04:42:10;26.50;73.70
40636;DHT22;26642;55.766;37.828;2023-08-07T04:44:36;26.50;73.20
40636;DHT22;26642;55.766;37.828;2023-08-07T04:47:02;26.60;72.30
40636;DHT22;26642;55.766;37.828;2023-08-07T04:49:28;26.70;72.80
40636;DHT22;26642;55.766;37.828;2023-08-07T04:51:53;26.80;72.10
40636;DHT22;26642;55.766;37.828;2023-08-07T04:54:19;26.90;71.10
40636;DHT22;26642;55.766;37.828;2023-08-07T04:56:45;27.00;71.00
40636;DHT22;26642;55.766;37.828;2023-08-07T04:59:11;27.00;70.50
40636;DHT22;26642;55.766;37.828;2023-08-07T05:01:37;27.00;70.40
40636;DHT22;26642;55.766;37.828;2023-08-07T05:04:04;27.10;70.20
40636;DHT22;26642;55.766;37.828;2023-08-07T05:06:31;27.20;69.80
40636;DHT22;26642;55.766;37.828;2023-08-07T05:08:57;27.40;70.00
40636;DHT22;26642;55.766;37.828;2023-08-07T05:11:23;27.30;69.10
40636;DHT22;26642;55.766;37.828;2023-08-07T05:13:49;27.50;68.50
40636;DHT22;26642;55.766;37.828;2023-08-07T05:16:14;27.60;68.60
40636;DHT22;26642;55.766;37.828;2023-08-07T05:18:40;27.80;68.40
40636;DHT22;26642;55.766;37.828;2023-08-07T05:21:06;27.90;68.20
40636;DHT22;26642;55.766;37.828;2023-08-07T05:23:34;28.10;67.10
40636;DHT22;26642;55.766;37.828;2023-08-07T05:26:00;28.20;66.70
40636;DHT22;26642;55.766;37.828;2023-08-07T05:28:26;28.20;66.60
40636;DHT22;26642;55.766;37.828;2023-08-07T05:30:52;28.40;66.10
40636;DHT22;26642;55.766;37.828;2023-08-07T05:33:18;28.50;66.40
40636;DHT22;26642;55.766;37.828;2023-08-07T05:35:44;28.60;65.20
40636;DHT22;26642;55.766;37.828;2023-08-07T05:38:10;28.80;64.60
40636;DHT22;26642;55.766;37.828;2023-08-07T05:40:35;28.80;64.20
40636;DHT22;26642;55.766;37.828;2023-08-07T05:43:02;28.80;63.40
40636;DHT22;26642;55.766;37.828;2023-08-07T05:45:28;29.00;63.50
40636;DHT22;26642;55.766;37.828;2023-08-07T05:47:54;29.10;62.80
40636;DHT22;26642;55.766;37.828;2023-08-07T05:50:20;29.10;62.80
40636;DHT22;26642;55.766;37.828;2023-08-07T05:52:46;29.20;62.60
40636;DHT22;26642;55.766;37.828;2023-08-07T05:55:12;29.40;62.40
40636;DHT22;26642;55.766;37.828;2023-08-07T05:57:38;29.50;63.00
40636;DHT22;26642;55.766;37.828;2023-08-07T06:00:04;29.50;62.70
40636;DHT22;26642;55.766;37.828;2023-08-07T06:02:37;29.60;62.60
40636;DHT22;26642;55.766;37.828;2023-08-07T06:05:03;29.60;62.10
40636;DHT22;26642;55.766;37.828;2023-08-07T06:07:30;29.70;62.80
40636;DHT22;26642;55.766;37.828;2023-08-07T06:09:55;29.80;61.90
40636;DHT22;26642;55.766;37.828;2023-08-07T06:12:21;29.80;64.00
40636;DHT22;26642;55.766;37.828;2023-08-07T06:14:47;29.90;61.00
40636;DHT22;26642;55.766;37.828;2023-08-07T06:17:14;29.80;60.50
40636;DHT22;26642;55.766;37.828;2023-08-07T06:19:39;29.90;60.70
40636;DHT22;26642;55.766;37.828;2023-08-07T06:22:05;30.00;60.50
40636;DHT22;26642;55.766;37.828;2023-08-07T06:24:31;29.90;61.50
40636;DHT22;26642;55.766;37.828;2023-08-07T06:26:57;30.00;61.50
40636;DHT22;26642;55.766;37.828;2023-08-07T06:29:23;30.10;60.40
40636;DHT22;26642;55.766;37.828;2023-08-07T06:31:49;30.00;60.40
40636;DHT22;26642;55.766;37.828;2023-08-07T06:34:15;29.90;60.00
40636;DHT22;26642;55.766;37.828;2023-08-07T06:36:41;30.10;60.80
40636;DHT22;26642;55.766;37.828;2023-08-07T06:39:07;30.10;63.50
40636;DHT22;26642;55.766;37.828;2023-08-07T06:41:33;30.00;59.00
40636;DHT22;26642;55.766;37.828;2023-08-07T06:43:59;30.00;60.00
40636;DHT22;26642;55.766;37.828;2023-08-07T06:46:25;30.10;61.10
40636;DHT22;26642;55.766;37.828;2023-08-07T06:48:52;30.30;61.80
40636;DHT22;26642;55.766;37.828;2023-08-07T06:51:18;30.20;59.10
40636;DHT22;26642;55.766;37.828;2023-08-07T06:53:44;30.20;62.10
40636;DHT22;26642;55.766;37.828;2023-08-07T06:56:10;30.10;66.10
40636;DHT22;26642;55.766;37.828;2023-08-07T06:58:36;30.00;65.10
40636;DHT22;26642;55.766;37.828;2023-08-07T07:01:02;29.90;60.60
40636;DHT22;26642;55.766;37.828;2023-08-07T07:03:27;29.80;60.10
40636;DHT22;26642;55.766;37.828;2023-08-07T07:05:54;29.70;59.40
40636;DHT22;26642;55.766;37.828;2023-08-07T07:08:20;29.50;58.90
40636;DHT22;26642;55.766;37.828;2023-08-07T07:10:47;29.70;63.00
40636;DHT22;26642;55.766;37.828;2023-08-07T07:13:13;29.80;59.90
40636;DHT22;26642;55.766;37.828;2023-08-07T07:15:38;29.70;58.90
40636;DHT22;26642;55.766;37.828;2023-08-07T07:18:04;29.60;58.80
40636;DHT22;26642;55.766;37.828;2023-08-07T07:20:31;29.60;59.90
40636;DHT22;26642;55.766;37.828;2023-08-07T07:22:57;29.70;59.60
40636;DHT22;26642;55.766;37.828;2023-08-07T07:25:23;29.70;60.40
40636;DHT22;26642;55.766;37.828;2023-08-07T07:27:49;29.80;65.40
40636;DHT22;26642;55.766;37.828;2023-08-07T07:30:14;29.80;62.40
40636;DHT22;26642;55.766;37.828;2023-08-07T07:32:40;29.70;58.30
40636;DHT22;26642;55.766;37.828;2023-08-07T07:35:06;29.80;61.80
40636;DHT22;26642;55.766;37.828;2023-08-07T07:37:33;29.90;61.40
40636;DHT22;26642;55.766;37.828;2023-08-07T07:39:59;29.80;59.00
40636;DHT22;26642;55.766;37.828;2023-08-07T07:42:25;29.70;59.00
40636;DHT22;26642;55.766;37.828;2023-08-07T07:44:51;29.70;58.90
40636;DHT22;26642;55.766;37.828;2023-08-07T07:47:17;29.70;60.60
40636;DHT22;26642;55.766;37.828;2023-08-07T07:49:46;29.70;62.00
40636;DHT22;26642;55.766;37.828;2023-08-07T07:52:15;29.70;57.90
40636;DHT22;26642;55.766;37.828;2023-08-07T07:54:41;29.60;59.00
40636;DHT22;26642;55.766;37.828;2023-08-07T07:57:07;29.50;57.60
40636;DHT22;26642;55.766;37.828;2023-08-07T07:59:33;29.40;58.10
40636;DHT22;26642;55.766;37.828;2023-08-07T08:01:59;29.40;59.40
40636;DHT22;26642;55.766;37.828;2023-08-07T08:04:25;29.40;57.90
40636;DHT22;26642;55.766;37.828;2023-08-07T08:06:51;29.60;59.40
40636;DHT22;26642;55.766;37.828;2023-08-07T08:09:17;29.50;58.20
40636;DHT22;26642;55.766;37.828;2023-08-07T08:11:43;29.50;57.60
40636;DHT22;26642;55.766;37.828;2023-08-07T08:14:09;29.50;57.80
40636;DHT22;26642;55.766;37.828;2023-08-07T08:16:35;29.40;57.90
40636;DHT22;26642;55.766;37.828;2023-08-07T08:19:00;29.40;58.10
40636;DHT22;26642;55.766;37.828;2023-08-07T08:21:27;29.20;57.10
40636;DHT22;26642;55.766;37.828;2023-08-07T08:23:53;29.20;57.20
40636;DHT22;26642;55.766;37.828;2023-08-07T08:26:19;29.00;57.30
40636;DHT22;26642;55.766;37.828;2023-08-07T08:28:45;29.10;59.20
40636;DHT22;26642;55.766;37.828;2023-08-07T08:31:11;29.10;57.90
40636;DHT22;26642;55.766;37.828;2023-08-07T08:33:37;29.10;57.60
40636;DHT22;26642;55.766;37.828;2023-08-07T08:36:03;29.10;57.50
40636;DHT22;26642;55.766;37.828;2023-08-07T08:38:29;29.10;57.90
40636;DHT22;26642;55.766;37.828;2023-08-07T08:41:02;29.10;57.70
40636;DHT22;26642;55.766;37.828;2023-08-07T08:43:30;29.10;58.60
40636;DHT22;26642;55.766;37.828;2023-08-07T08:46:01;29.20;58.40
40636;DHT22;26642;55.766;37.828;2023-08-07T08:48:27;29.20;57.50
40636;DHT22;26642;55.766;37.828;2023-08-07T08:50:57;29.20;58.00
40636;DHT22;26642;55.766;37.828;2023-08-07T08:53:23;29.20;58.10
40636;DHT22;26642;55.766;37.828;2023-08-07T08:55:50;29.20;57.80
40636;DHT22;26642;55.766;37.828;2023-08-07T08:58:17;29.20;58.40
40636;DHT22;26642;55.766;37.828;2023-08-07T09:00:43;29.10;58.00
40636;DHT22;26642;55.766;37.828;2023-08-07T09:03:10;29.20;62.00
40636;DHT22;26642;55.766;37.828;2023-08-07T09:05:37;29.10;59.30
40636;DHT22;26642;55.766;37.828;2023-08-07T09:08:03;29.10;58.20
40636;DHT22;26642;55.766;37.828;2023-08-07T09:10:31;29.00;57.30
40636;DHT22;26642;55.766;37.828;2023-08-07T09:13:00;29.00;57.30
40636;DHT22;26642;55.766;37.828;2023-08-07T09:15:33;29.10;57.60
40636;DHT22;26642;55.766;37.828;2023-08-07T09:18:03;29.10;57.70
40636;DHT22;26642;55.766;37.828;2023-08-07T09:20:33;29.00;57.40
40636;DHT22;26642;55.766;37.828;2023-08-07T09:23:00;28.90;57.20
40636;DHT22;26642;55.766;37.828;2023-08-07T09:25:33;28.90;57.20
40636;DHT22;26642;55.766;37.828;2023-08-07T09:28:03;28.90;56.70
40636;DHT22;26642;55.766;37.828;2023-08-07T09:30:30;28.90;56.60
40636;DHT22;26642;55.766;37.828;2023-08-07T09:32:57;28.90;56.30
40636;DHT22;26642;55.766;37.828;2023-08-07T09:35:23;28.90;57.10
40636;DHT22;26642;55.766;37.828;2023-08-07T09:37:50;28.90;56.40
40636;DHT22;26642;55.766;37.828;2023-08-07T09:40:17;28.90;56.50
40636;DHT22;26642;55.766;37.828;2023-08-07T09:42:43;28.80;56.60
40636;DHT22;26642;55.766;37.828;2023-08-07T09:47:46;28.90;56.80
40636;DHT22;26642;55.766;37.828;2023-08-07T09:50:16;29.00;57.20
40636;DHT22;26642;55.766;37.828;2023-08-07T09:52:47;29.00;56.50
40636;DHT22;26642;55.766;37.828;2023-08-07T09:55:13;28.90;56.90
40636;DHT22;26642;55.766;37.828;2023-08-07T09:57:44;28.90;56.70
40636;DHT22;26642;55.766;37.828;2023-08-07T10:00:14;28.90;57.00
40636;DHT22;26642;55.766;37.828;2023-08-07T10:02:42;29.00;56.20
40636;DHT22;26642;55.766;37.828;2023-08-07T10:05:11;29.00;56.60
40636;DHT22;26642;55.766;37.828;2023-08-07T10:07:38;28.90;56.40
40636;DHT22;26642;55.766;37.828;2023-08-07T10:10:05;29.00;56.80
40636;DHT22;26642;55.766;37.828;2023-08-07T10:12:32;29.00;56.80
40636;DHT22;26642;55.766;37.828;2023-08-07T10:15:02;29.00;57.60
40636;DHT22;26642;55.766;37.828;2023-08-07T10:17:29;29.00;57.50
40636;DHT22;26642;55.766;37.828;2023-08-07T10:19:57;29.00;57.10
40636;DHT22;26642;55.766;37.828;2023-08-07T10:22:25;29.10;58.30
40636;DHT22;26642;55.766;37.828;2023-08-07T10:24:54;29.00;56.60
40636;DHT22;26642;55.766;37.828;2023-08-07T10:27:23;29.00;56.30
40636;DHT22;26642;55.766;37.828;2023-08-07T10:29:52;29.00;56.60
40636;DHT22;26642;55.766;37.828;2023-08-07T10:32:20;29.00;56.30
40636;DHT22;26642;55.766;37.828;2023-08-07T10:34:49;29.00;56.60
40636;DHT22;26642;55.766;37.828;2023-08-07T10:37:43;29.00;56.40
40636;DHT22;26642;55.766;37.828;2023-08-07T10:40:11;28.90;55.40
40636;DHT22;26642;55.766;37.828;2023-08-07T10:45:18;29.00;56.10
40636;DHT22;26642;55.766;37.828;2023-08-07T10:50:32;29.10;55.70
40636;DHT22;26642;55.766;37.828;2023-08-07T10:53:05;29.00;55.30
40636;DHT22;26642;55.766;37.828;2023-08-07T10:55:44;29.00;55.70
40636;DHT22;26642;55.766;37.828;2023-08-07T10:58:25;29.10;56.10
40636;DHT22;26642;55.766;37.828;2023-08-07T11:00:52;29.10;57.40
40636;DHT22;26642;55.766;37.828;2023-08-07T11:03:36;29.10;56.50
40636;DHT22;26642;55.766;37.828;2023-08-07T11:06:02;29.10;56.50
40636;DHT22;26642;55.766;37.828;2023-08-07T11:08:29;29.10;56.50
40636;DHT22;26642;55.766;37.828;2023-08-07T11:10:56;29.10;56.70
40636;DHT22;26642;55.766;37.828;2023-08-07T11:13:23;29.10;56.30
40636;DHT22;26642;55.766;37.828;2023-08-07T11:15:49;29.00;56.00
40636;DHT22;26642;55.766;37.828;2023-08-07T11:18:15;29.10;56.60
40636;DHT22;26642;55.766;37.828;2023-08-07T11:20:42;29.10;56.20
40636;DHT22;26642;55.766;37.828;2023-08-07T11:23:08;29.10;56.40
40636;DHT22;26642;55.766;37.828;2023-08-07T11:25:34;29.10;56.20
40636;DHT22;26642;55.766;37.828;2023-08-07T11:28:00;29.10;56.50
40636;DHT22;26642;55.766;37.828;2023-08-07T11:30:26;29.20;56.30
40636;DHT22;26642;55.766;37.828;2023-08-07T11:32:52;29.20;56.40
40636;DHT22;26642;55.766;37.828;2023-08-07T11:35:18;29.20;56.80
40636;DHT22;26642;55.766;37.828;2023-08-07T11:37:47;29.20;56.80
40636;DHT22;26642;55.766;37.828;2023-08-07T11:40:13;29.20;56.70
40636;DHT22;26642;55.766;37.828;2023-08-07T11:42:41;29.20;56.70
40636;DHT22;26642;55.766;37.828;2023-08-07T11:45:07;29.20;56.90
40636;DHT22;26642;55.766;37.828;2023-08-07T11:47:34;29.20;56.60
40636;DHT22;26642;55.766;37.828;2023-08-07T11:50:01;29.20;56.80
40636;DHT22;26642;55.766;37.828;2023-08-07T11:52:28;29.20;57.00
40636;DHT22;26642;55.766;37.828;2023-08-07T11:54:53;29.10;56.50
40636;DHT22;26642;55.766;37.828;2023-08-07T11:57:22;29.20;57.10
40636;DHT22;26642;55.766;37.828;2023-08-07T11:59:51;29.20;57.20
40636;DHT22;26642;55.766;37.828;2023-08-07T12:02:23;29.20;56.80
40636;DHT22;26642;55.766;37.828;2023-08-07T12:04:50;29.20;57.20
40636;DHT22;26642;55.766;37.828;2023-08-07T12:07:19;29.30;57.20
40636;DHT22;26642;55.766;37.828;2023-08-07T12:09:48;29.30;57.10
40636;DHT22;26642;55.766;37.828;2023-08-07T12:12:14;29.30;57.20
40636;DHT22;26642;55.766;37.828;2023-08-07T12:14:40;29.30;57.00
40636;DHT22;26642;55.766;37.828;2023-08-07T12:17:09;29.30;57.30
40636;DHT22;26642;55.766;37.828;2023-08-07T12:19:38;29.30;57.20
40636;DHT22;26642;55.766;37.828;2023-08-07T12:22:10;29.30;56.90
40636;DHT22;26642;55.766;37.828;2023-08-07T12:24:36;29.30;57.30
40636;DHT22;26642;55.766;37.828;2023-08-07T12:27:04;29.30;57.40
40636;DHT22;26642;55.766;37.828;2023-08-07T12:29:30;29.30;57.10
40636;DHT22;26642;55.766;37.828;2023-08-07T12:31:56;29.30;57.60
40636;DHT22;26642;55.766;37.828;2023-08-07T12:34:24;29.30;57.00
40636;DHT22;26642;55.766;37.828;2023-08-07T12:36:51;29.40;58.10
40636;DHT22;26642;55.766;37.828;2023-08-07T12:39:17;29.40;57.40
40636;DHT22;26642;55.766;37.828;2023-08-07T12:41:43;29.40;57.40
40636;DHT22;26642;55.766;37.828;2023-08-07T12:44:09;29.40;57.60
40636;DHT22;26642;55.766;37.828;2023-08-07T12:46:34;29.40;57.60
40636;DHT22;26642;55.766;37.828;2023-08-07T12:49:02;29.40;57.80
40636;DHT22;26642;55.766;37.828;2023-08-07T12:51:28;29.40;56.90
40636;DHT22;26642;55.766;37.828;2023-08-07T12:53:54;29.50;57.10
40636;DHT22;26642;55.766;37.828;2023-08-07T12:56:20;29.40;57.50
40636;DHT22;26642;55.766;37.828;2023-08-07T12:58:46;29.40;57.50
40636;DHT22;26642;55.766;37.828;2023-08-07T13:01:12;29.40;56.80
40636;DHT22;26642;55.766;37.828;2023-08-07T13:03:38;29.40;56.60
40636;DHT22;26642;55.766;37.828;2023-08-07T13:06:04;29.40;57.00
40636;DHT22;26642;55.766;37.828;2023-08-07T13:08:33;29.40;57.20
40636;DHT22;26642;55.766;37.828;2023-08-07T13:11:01;29.40;56.60
40636;DHT22;26642;55.766;37.828;2023-08-07T13:13:27;29.40;56.90
40636;DHT22;26642;55.766;37.828;2023-08-07T13:15:54;29.50;57.10
40636;DHT22;26642;55.766;37.828;2023-08-07T13:18:20;29.50;56.50
40636;DHT22;26642;55.766;37.828;2023-08-07T13:20:45;29.50;57.00
40636;DHT22;26642;55.766;37.828;2023-08-07T13:23:14;29.40;57.00
40636;DHT22;26642;55.766;37.828;2023-08-07T13:25:40;29.40;56.70
40636;DHT22;26642;55.766;37.828;2023-08-07T13:28:06;29.50;57.10
40636;DHT22;26642;55.766;37.828;2023-08-07T13:30:33;29.50;56.60
40636;DHT22;26642;55.766;37.828;2023-08-07T13:32:59;29.60;56.50
40636;DHT22;26642;55.766;37.828;2023-08-07T13:35:25;29.50;56.30
40636;DHT22;26642;55.766;37.828;2023-08-07T13:37:52;29.50;56.30
40636;DHT22;26642;55.766;37.828;2023-08-07T13:40:18;29.60;56.00
40636;DHT22;26642;55.766;37.828;2023-08-07T13:42:46;29.50;56.30
40636;DHT22;26642;55.766;37.828;2023-08-07T13:45:12;29.50;56.00
40636;DHT22;26642;55.766;37.828;2023-08-07T13:47:39;29.50;56.20
40636;DHT22;26642;55.766;37.828;2023-08-07T13:50:06;29.50;56.50
40636;DHT22;26642;55.766;37.828;2023-08-07T13:52:33;29.50;56.50
40636;DHT22;26642;55.766;37.828;2023-08-07T13:54:59;29.50;56.90
40636;DHT22;26642;55.766;37.828;2023-08-07T13:57:25;29.50;56.70
40636;DHT22;26642;55.766;37.828;2023-08-07T13:59:51;29.60;56.30
40636;DHT22;26642;55.766;37.828;2023-08-07T14:02:19;29.50;56.50
40636;DHT22;26642;55.766;37.828;2023-08-07T14:04:45;29.50;57.20
40636;DHT22;26642;55.766;37.828;2023-08-07T14:07:11;29.50;57.10
40636;DHT22;26642;55.766;37.828;2023-08-07T14:09:38;29.50;57.10
40636;DHT22;26642;55.766;37.828;2023-08-07T14:12:04;29.60;57.30
40636;DHT22;26642;55.766;37.828;2023-08-07T14:14:30;29.50;57.40
40636;DHT22;26642;55.766;37.828;2023-08-07T14:16:56;29.50;57.60
40636;DHT22;26642;55.766;37.828;2023-08-07T14:19:26;29.60;57.30
40636;DHT22;26642;55.766;37.828;2023-08-07T14:21:52;29.50;57.40
40636;DHT22;26642;55.766;37.828;2023-08-07T14:24:18;29.50;57.00
40636;DHT22;26642;55.766;37.828;2023-08-07T14:26:43;29.50;57.10
40636;DHT22;26642;55.766;37.828;2023-08-07T14:29:09;29.50;56.70
40636;DHT22;26642;55.766;37.828;2023-08-07T14:31:35;29.50;56.70
40636;DHT22;26642;55.766;37.828;2023-08-07T14:34:01;29.50;56.80
40636;DHT22;26642;55.766;37.828;2023-08-07T14:36:28;29.50;57.10
40636;DHT22;26642;55.766;37.828;2023-08-07T14:38:54;29.50;57.30
40636;DHT22;26642;55.766;37.828;2023-08-07T14:41:20;29.50;57.30
40636;DHT22;26642;55.766;37.828;2023-08-07T14:43:46;29.50;58.10
40636;DHT22;26642;55.766;37.828;2023-08-07T14:46:13;29.50;59.00
40636;DHT22;26642;55.766;37.828;2023-08-07T14:48:39;29.50;58.30
40636;DHT22;26642;55.766;37.828;2023-08-07T14:51:05;29.50;58.40
40636;DHT22;26642;55.766;37.828;2023-08-07T14:53:31;29.50;58.30
40636;DHT22;26642;55.766;37.828;2023-08-07T14:55:57;29.50;57.60
40636;DHT22;26642;55.766;37.828;2023-08-07T14:58:23;29.50;58.50
40636;DHT22;26642;55.766;37.828;2023-08-07T15:00:49;29.50;57.30
40636;DHT22;26642;55.766;37.828;2023-08-07T15:03:16;29.50;58.00
40636;DHT22;26642;55.766;37.828;2023-08-07T15:05:42;29.50;57.60
40636;DHT22;26642;55.766;37.828;2023-08-07T15:08:08;29.50;57.40
40636;DHT22;26642;55.766;37.828;2023-08-07T15:10:34;29.40;57.60
40636;DHT22;26642;55.766;37.828;2023-08-07T15:13:01;29.40;58.60
40636;DHT22;26642;55.766;37.828;2023-08-07T15:15:27;29.40;58.10
40636;DHT22;26642;55.766;37.828;2023-08-07T15:17:53;29.40;58.50
40636;DHT22;26642;55.766;37.828;2023-08-07T15:20:18;29.50;58.70
40636;DHT22;26642;55.766;37.828;2023-08-07T15:22:46;29.50;57.90